createdAt,value
2022-12-11T08:59:10.901Z,2.28
2022-12-11T09:01:15.416Z,2.58
2022-12-11T09:03:18.100Z,2.83
2022-12-11T09:05:20.786Z,3.00
2022-12-11T09:07:23.741Z,3.20
2022-12-11T09:09:26.434Z,3.43
2022-12-11T09:11:31.425Z,3.60
2022-12-11T09:13:34.206Z,3.71
2022-12-11T09:15:41.564Z,3.72
2022-12-11T09:17:44.513Z,3.80
2022-12-11T09:19:47.361Z,3.95
2022-12-11T09:21:50.066Z,4.05
2022-12-11T09:23:54.574Z,4.14
2022-12-11T09:25:57.245Z,4.24
2022-12-11T09:27:59.861Z,4.33
2022-12-11T09:30:02.633Z,4.38
2022-12-11T09:32:07.127Z,4.46
2022-12-11T09:34:13.290Z,4.50
2022-12-11T09:36:16.060Z,4.51
2022-12-11T09:38:18.722Z,4.61
2022-12-11T09:40:21.371Z,4.63
2022-12-11T09:42:33.476Z,4.63
2022-12-11T09:44:41.305Z,4.57
2022-12-11T09:46:45.209Z,4.61
2022-12-11T09:48:50.995Z,4.67
2022-12-11T09:50:56.056Z,4.77
2022-12-11T09:53:09.544Z,4.82
2022-12-11T09:55:17.741Z,4.89
2022-12-11T09:57:32.907Z,4.92
2022-12-11T09:59:46.839Z,5.00
2022-12-11T10:01:55.999Z,5.03
2022-12-11T10:04:32.699Z,5.03
2022-12-11T10:06:43.116Z,5.04
2022-12-11T10:08:57.556Z,5.10
2022-12-11T10:11:19.329Z,5.10
2022-12-11T10:13:31.897Z,5.09
2022-12-11T10:15:40.969Z,5.12
2022-12-11T10:17:45.492Z,5.18
2022-12-11T10:19:50.464Z,5.18
2022-12-11T10:21:54.134Z,5.09
2022-12-11T10:24:01.670Z,4.97
2022-12-11T10:26:06.786Z,4.97
2022-12-11T10:28:14.669Z,5.03
2022-12-11T10:30:19.567Z,5.08
2022-12-11T10:32:25.348Z,5.15
2022-12-11T10:34:35.199Z,5.17
2022-12-11T10:36:41.619Z,5.17
2022-12-11T10:38:45.978Z,5.21
2022-12-11T10:40:52.019Z,5.25
2022-12-11T10:42:55.360Z,5.26
2022-12-11T10:45:00.470Z,5.28
2022-12-11T10:47:06.051Z,5.34
2022-12-11T10:49:22.733Z,5.38
2022-12-11T10:51:34.330Z,5.36
2022-12-11T10:53:40.450Z,5.38
2022-12-11T10:55:46.031Z,5.35
2022-12-11T10:57:57.837Z,5.38
2022-12-11T11:00:01.746Z,5.37
2022-12-11T11:02:07.261Z,5.42
2022-12-11T11:04:19.991Z,5.46
2022-12-11T11:06:23.950Z,5.45
2022-12-11T11:08:29.073Z,5.41
2022-12-11T11:10:33.174Z,5.43
2022-12-11T11:12:40.255Z,5.50
2022-12-11T11:14:43.146Z,5.54
2022-12-11T11:16:47.713Z,5.57
2022-12-11T11:18:53.397Z,5.57
2022-12-11T11:20:56.664Z,5.60
2022-12-11T11:23:02.645Z,5.62
2022-12-11T11:25:06.003Z,5.64
2022-12-11T11:27:24.830Z,5.67
2022-12-11T11:29:32.997Z,5.68
2022-12-11T11:31:37.132Z,5.68
2022-12-11T11:33:49.994Z,5.65
2022-12-11T11:35:57.860Z,5.64
2022-12-11T11:38:06.856Z,5.67
2022-12-11T11:40:16.111Z,5.67
2022-12-11T11:42:27.637Z,5.71
2022-12-11T11:44:35.775Z,5.77
2022-12-11T11:46:43.789Z,5.80
2022-12-11T11:48:55.004Z,5.80
2022-12-11T11:50:58.872Z,5.82
2022-12-11T11:53:06.707Z,5.81
2022-12-11T11:55:21.673Z,5.82
2022-12-11T11:57:36.289Z,5.83
2022-12-11T11:59:44.867Z,5.84
2022-12-11T12:01:47.755Z,5.85
2022-12-11T12:03:51.441Z,5.87
2022-12-11T12:05:58.827Z,5.90
2022-12-11T12:08:11.317Z,5.92
2022-12-11T12:10:22.250Z,5.96
2022-12-11T12:12:36.657Z,5.95
2022-12-11T12:14:52.653Z,5.94
2022-12-11T12:17:07.472Z,5.95
2022-12-11T12:19:20.700Z,5.97
2022-12-11T12:21:32.825Z,6.00
2022-12-11T12:23:51.089Z,6.00
2022-12-11T12:25:58.916Z,6.00
2022-12-11T12:28:13.838Z,6.03
2022-12-11T12:30:22.805Z,6.03
2022-12-11T12:32:33.218Z,5.98
2022-12-11T12:34:56.297Z,6.00
2022-12-11T12:37:07.980Z,6.02
2022-12-11T12:39:23.157Z,6.00
2022-12-11T12:41:39.269Z,6.02
2022-12-11T12:44:13.551Z,6.04
2022-12-11T12:46:28.431Z,6.07
2022-12-11T12:48:31.822Z,6.07
2022-12-11T12:50:39.646Z,6.04
2022-12-11T12:52:44.528Z,6.01
2022-12-11T12:55:05.783Z,6.00
2022-12-11T12:57:09.207Z,6.03
2022-12-11T12:59:22.839Z,6.04
2022-12-11T13:01:27.238Z,6.05
2022-12-11T13:03:34.034Z,6.07
2022-12-11T13:05:36.820Z,6.05
2022-12-11T13:07:54.257Z,6.07
2022-12-11T13:10:00.868Z,6.08
2022-12-11T13:12:14.530Z,6.06
2022-12-11T13:14:30.131Z,6.05
2022-12-11T13:16:37.932Z,6.03
2022-12-11T13:18:41.025Z,6.05
2022-12-11T13:20:50.904Z,6.03
2022-12-11T13:23:11.020Z,5.99
2022-12-11T13:25:24.753Z,6.02
2022-12-11T13:27:37.952Z,6.01
2022-12-11T13:29:43.415Z,6.03
2022-12-11T13:31:46.540Z,6.03
2022-12-11T13:33:53.853Z,6.01
2022-12-11T13:36:27.560Z,5.99
2022-12-11T13:38:30.379Z,6.00
2022-12-11T13:40:39.407Z,6.03
2022-12-11T13:42:50.470Z,6.03
2022-12-11T13:44:54.646Z,6.02
2022-12-11T13:46:59.926Z,5.98
2022-12-11T13:49:05.119Z,5.93
2022-12-11T13:51:08.378Z,5.95
2022-12-11T13:53:16.616Z,5.99
2022-12-11T13:55:26.593Z,6.03
2022-12-11T13:57:29.346Z,6.04
2022-12-11T13:59:35.325Z,6.00
2022-12-11T14:01:40.470Z,6.01
2022-12-11T14:03:51.236Z,6.02
2022-12-11T14:05:54.099Z,5.99
2022-12-11T14:08:03.784Z,5.97
2022-12-11T14:10:09.556Z,5.99
2022-12-11T14:12:18.291Z,5.96
2022-12-11T14:14:24.376Z,5.95
2022-12-11T14:16:28.041Z,5.94
2022-12-11T14:18:34.092Z,5.95
2022-12-11T14:20:36.905Z,5.97
2022-12-11T14:22:39.589Z,5.96
2022-12-11T14:24:50.141Z,5.98
2022-12-11T14:26:54.456Z,5.97
2022-12-11T14:28:57.917Z,5.96
2022-12-11T14:31:02.336Z,5.94
2022-12-11T14:33:06.331Z,5.93
2022-12-11T14:35:24.609Z,5.94
2022-12-11T14:37:28.479Z,5.92
2022-12-11T14:39:36.177Z,5.85
2022-12-11T14:41:45.511Z,5.76
2022-12-11T14:43:50.946Z,5.74
2022-12-11T14:45:59.260Z,5.73
2022-12-11T14:48:05.881Z,5.76
2022-12-11T14:50:17.888Z,5.80
2022-12-11T14:52:24.979Z,5.83
2022-12-11T14:54:32.642Z,5.88
2022-12-11T14:56:35.578Z,5.91
2022-12-11T14:58:44.457Z,5.90
2022-12-11T15:00:58.776Z,5.90
2022-12-11T15:03:03.750Z,5.94
2022-12-11T15:05:18.094Z,5.93
2022-12-11T15:07:22.473Z,5.85
2022-12-11T15:09:27.826Z,5.80
2022-12-11T15:11:33.659Z,5.72
2022-12-11T15:13:38.857Z,5.73
2022-12-11T15:15:47.346Z,5.73
2022-12-11T15:17:53.033Z,5.76
2022-12-11T15:20:00.953Z,5.82
2022-12-11T15:22:07.796Z,5.81
2022-12-11T15:24:25.964Z,5.81
2022-12-11T15:26:35.537Z,5.76
2022-12-11T15:28:39.828Z,5.71
2022-12-11T15:30:42.664Z,5.69
2022-12-11T15:32:46.494Z,5.66
2022-12-11T15:34:51.942Z,5.64
2022-12-11T15:36:54.882Z,5.66
2022-12-11T15:38:59.541Z,5.67
2022-12-11T15:41:03.456Z,5.64
2022-12-11T15:43:06.229Z,5.64
2022-12-11T15:45:16.386Z,5.63
2022-12-11T15:47:23.246Z,5.59
2022-12-11T15:49:26.036Z,5.59
2022-12-11T15:51:29.057Z,5.58
2022-12-11T15:53:31.941Z,5.55
2022-12-11T15:55:36.104Z,5.51
2022-12-11T15:57:40.982Z,5.51
2022-12-11T15:59:43.879Z,5.51
2022-12-11T16:01:46.845Z,5.54
2022-12-11T16:03:50.259Z,5.50
2022-12-11T16:05:54.107Z,5.46
2022-12-11T16:07:59.522Z,5.44
2022-12-11T16:10:02.693Z,5.43
2022-12-11T16:12:07.184Z,5.44
2022-12-11T16:14:09.920Z,5.39
2022-12-11T16:16:12.651Z,5.34
2022-12-11T16:18:17.466Z,5.32
2022-12-11T16:20:20.601Z,5.31
2022-12-11T16:22:23.491Z,5.29
2022-12-11T16:24:26.177Z,5.26
2022-12-11T16:26:28.939Z,5.22
2022-12-11T16:28:32.947Z,5.20
2022-12-11T16:30:37.855Z,5.21
2022-12-11T16:32:40.762Z,5.22
2022-12-11T16:34:43.479Z,5.22
2022-12-11T16:36:46.272Z,5.23
2022-12-11T16:38:53.795Z,5.22
2022-12-11T16:41:01.678Z,5.20
2022-12-11T16:43:05.211Z,5.19
2022-12-11T16:45:14.271Z,5.17
2022-12-11T16:47:17.316Z,5.15
2022-12-11T16:49:20.084Z,5.12
2022-12-11T16:51:22.859Z,5.16
2022-12-11T16:53:26.085Z,5.14
2022-12-11T16:55:28.737Z,5.15
2022-12-11T16:57:31.448Z,5.11
2022-12-11T16:59:37.459Z,5.06
2022-12-11T17:01:41.859Z,5.08
2022-12-11T17:03:46.661Z,5.07
2022-12-11T17:05:49.292Z,5.04
2022-12-11T17:07:51.942Z,4.99
2022-12-11T17:09:54.726Z,5.01
2022-12-11T17:11:57.947Z,4.92
2022-12-11T17:14:01.306Z,4.88
2022-12-11T17:16:06.154Z,4.92
2022-12-11T17:18:10.764Z,4.96
2022-12-11T17:20:13.509Z,4.99
2022-12-11T17:22:16.324Z,5.01
2022-12-11T17:24:19.073Z,5.01
2022-12-11T17:26:22.075Z,4.96
2022-12-11T17:28:24.953Z,4.94
2022-12-11T17:30:27.633Z,4.93
2022-12-11T17:32:30.451Z,4.93
2022-12-11T17:34:38.175Z,4.92
2022-12-11T17:36:41.517Z,4.97
2022-12-11T17:38:44.372Z,4.92
2022-12-11T17:40:47.373Z,4.87
2022-12-11T17:42:50.083Z,4.91
2022-12-11T17:44:52.854Z,4.96
2022-12-11T17:46:55.750Z,5.02
2022-12-11T17:49:00.136Z,5.06
2022-12-11T17:51:06.368Z,5.07
2022-12-11T17:53:09.775Z,5.06
2022-12-11T17:55:12.774Z,5.05
2022-12-11T17:57:15.931Z,5.10
2022-12-11T17:59:18.811Z,5.14
2022-12-11T18:01:21.720Z,5.17
2022-12-11T18:03:25.406Z,5.19
2022-12-11T18:05:30.609Z,5.18
2022-12-11T18:07:41.210Z,5.22
2022-12-11T18:09:44.921Z,5.20
2022-12-11T18:11:47.979Z,5.13
2022-12-11T18:13:54.039Z,5.23
2022-12-11T18:16:02.538Z,5.33
2022-12-11T18:18:06.764Z,5.36
2022-12-11T18:20:13.528Z,5.38
2022-12-11T18:22:16.778Z,5.40
2022-12-11T18:24:22.028Z,5.37
2022-12-11T18:26:28.855Z,5.34
2022-12-11T18:28:32.560Z,5.35
2022-12-11T18:30:35.934Z,5.38
2022-12-11T18:32:38.620Z,5.38
2022-12-11T18:34:41.296Z,5.39
2022-12-11T18:36:44.110Z,5.39
2022-12-11T18:38:49.749Z,5.35
2022-12-11T18:40:54.216Z,5.37
2022-12-11T18:43:00.488Z,5.39
2022-12-11T18:45:03.545Z,5.39
2022-12-11T18:47:09.303Z,5.40
2022-12-11T18:49:15.398Z,5.43
2022-12-11T18:51:23.876Z,5.40
2022-12-11T18:53:26.598Z,5.42
2022-12-11T18:55:29.358Z,5.40
2022-12-11T18:57:39.480Z,5.37
2022-12-11T18:59:43.924Z,5.35
2022-12-11T19:01:47.116Z,5.36
2022-12-11T19:03:51.243Z,5.37
2022-12-11T19:05:54.077Z,5.36
2022-12-11T19:07:59.178Z,5.35
2022-12-11T19:10:05.085Z,5.33
2022-12-11T19:12:11.057Z,5.32
2022-12-11T19:14:15.966Z,5.31
2022-12-11T19:16:29.542Z,5.34
2022-12-11T19:18:32.470Z,5.34
2022-12-11T19:20:57.734Z,5.33
2022-12-11T19:23:09.236Z,5.33
2022-12-11T19:25:13.961Z,5.35
2022-12-11T19:27:16.956Z,5.38
2022-12-11T19:29:31.193Z,5.36
2022-12-11T19:31:36.450Z,5.35
2022-12-11T19:33:42.581Z,5.33
2022-12-11T19:35:45.698Z,5.34
2022-12-11T19:37:54.223Z,5.35
2022-12-11T19:40:00.218Z,5.32
2022-12-11T19:42:02.833Z,5.34
2022-12-11T19:44:07.613Z,5.34
2022-12-11T19:46:13.552Z,5.33
2022-12-11T19:48:17.052Z,5.34
2022-12-11T19:50:19.804Z,5.33
2022-12-11T19:52:22.680Z,5.33
2022-12-11T19:54:26.756Z,5.33
2022-12-11T19:56:30.456Z,5.29
2022-12-11T19:58:33.376Z,5.31
2022-12-11T20:00:38.541Z,5.29
2022-12-11T20:02:42.596Z,5.28
2022-12-11T20:04:45.407Z,5.31
2022-12-11T20:06:48.787Z,5.33
2022-12-11T20:08:51.582Z,5.33
2022-12-11T20:11:10.558Z,5.31
2022-12-11T20:13:17.491Z,5.34
2022-12-11T20:15:20.489Z,5.35
2022-12-11T20:17:23.240Z,5.36
2022-12-11T20:19:27.767Z,5.35
2022-12-11T20:21:30.454Z,5.36
2022-12-11T20:23:33.516Z,5.37
2022-12-11T20:25:40.125Z,5.37
2022-12-11T20:27:42.893Z,5.37
2022-12-11T20:29:45.626Z,5.36
2022-12-11T20:31:51.431Z,5.36
2022-12-11T20:33:56.921Z,5.35
2022-12-11T20:36:00.993Z,5.35
2022-12-11T20:38:03.630Z,5.37
2022-12-11T20:40:07.531Z,5.41
2022-12-11T20:42:10.913Z,5.43
2022-12-11T20:44:13.714Z,5.42
2022-12-11T20:46:17.932Z,5.40
2022-12-11T20:48:20.702Z,5.39
2022-12-11T20:50:23.325Z,5.38
2022-12-11T20:52:27.991Z,5.36
2022-12-11T20:54:30.809Z,5.34
2022-12-11T20:56:33.529Z,5.35
2022-12-11T20:58:36.212Z,5.36
2022-12-11T21:00:40.464Z,5.38
2022-12-11T21:02:43.230Z,5.39
2022-12-11T21:04:46.081Z,5.40
2022-12-11T21:06:55.128Z,5.38
2022-12-11T21:09:00.029Z,5.39
2022-12-11T21:11:06.464Z,5.40
2022-12-11T21:13:09.200Z,5.40
2022-12-11T21:15:12.571Z,5.37
2022-12-11T21:17:15.593Z,5.40
2022-12-11T21:19:20.114Z,5.40
2022-12-11T21:21:23.420Z,5.39
2022-12-11T21:23:26.437Z,5.39
2022-12-11T21:25:30.513Z,5.38
2022-12-11T21:27:33.223Z,5.39
2022-12-11T21:29:36.535Z,5.38
2022-12-11T21:31:39.396Z,5.40
2022-12-11T21:33:42.537Z,5.41
2022-12-11T21:35:45.349Z,5.41
2022-12-11T21:37:48.537Z,5.41
2022-12-11T21:39:51.194Z,5.44
2022-12-11T21:41:55.360Z,5.45
